Time;durP1;ratioP1;P1;durP2;ratioP2;P2;SDS_P1;SDS_P2;PMS_P1;PMS_P2;Temp;Humidity;BMP_temperature;BMP_pressure;BME280_temperature;BME280_humidity;BME280_pressure;Samples;Min_cycle;Max_cycle;Signal;HPM_P1;HPM_P2
2024/04/24 00:00:56;;;;;;;5.80;1.10;;;7.00;99.90;;;;;;5454593;26;20002;-88
2024/04/24 00:03:22;;;;;;;3.10;0.85;;;6.90;99.90;;;;;;5454236;26;20461;-87
2024/04/24 00:05:47;;;;;;;5.95;1.40;;;6.90;99.90;;;;;;5453645;26;20071;-87
2024/04/24 00:08:13;;;;;;;7.55;1.90;;;6.90;99.90;;;;;;5455051;26;20360;-87
2024/04/24 00:10:38;;;;;;;8.73;0.98;;;6.90;99.90;;;;;;5454314;26;20013;-87
2024/04/24 00:13:04;;;;;;;4.70;1.10;;;6.80;99.90;;;;;;5454153;26;20017;-89
2024/04/24 00:15:29;;;;;;;12.05;1.42;;;6.80;99.90;;;;;;5453955;26;19994;-88
2024/04/24 00:17:55;;;;;;;7.93;1.38;;;6.80;99.90;;;;;;5454514;26;20017;-87
2024/04/24 00:20:20;;;;;;;4.68;0.80;;;6.80;99.90;;;;;;5454402;26;19995;-87
2024/04/24 00:22:47;;;;;;;3.92;1.00;;;6.80;99.90;;;;;;5454093;26;20018;-87
2024/04/24 00:25:13;;;;;;;5.88;2.65;;;6.80;99.90;;;;;;5454716;26;19999;-88
2024/04/24 00:27:40;;;;;;;4.10;1.00;;;6.80;99.90;;;;;;5454405;26;20002;-87
2024/04/24 00:30:11;;;;;;;3.38;0.95;;;6.80;99.90;;;;;;5453883;26;20009;-88
2024/04/24 00:32:37;;;;;;;3.42;0.90;;;6.90;99.90;;;;;;5454527;26;20011;-87
2024/04/24 00:35:02;;;;;;;2.45;0.95;;;6.80;99.90;;;;;;5455056;26;19995;-87
2024/04/24 00:37:28;;;;;;;9.02;1.17;;;6.80;99.90;;;;;;5466687;26;19995;-88
2024/04/24 00:39:53;;;;;;;11.05;1.30;;;6.80;99.90;;;;;;5477805;26;19995;-89
2024/04/24 00:42:20;;;;;;;3.28;0.90;;;7.50;99.90;;;;;;5462554;26;20582;-87
2024/04/24 00:44:45;;;;;;;6.15;1.23;;;6.80;99.90;;;;;;5453307;26;20014;-88
2024/04/24 00:47:15;;;;;;;5.97;0.95;;;7.40;99.90;;;;;;5454171;26;20454;-88
2024/04/24 00:49:45;;;;;;;3.25;1.10;;;6.70;99.90;;;;;;5453998;26;19995;-88
2024/04/24 00:52:10;;;;;;;8.40;1.80;;;6.70;99.90;;;;;;5453639;26;20002;-88
2024/04/24 00:54:36;;;;;;;6.65;1.40;;;6.70;99.90;;;;;;5454345;26;20067;-87
2024/04/24 00:57:02;;;;;;;3.20;1.05;;;6.80;99.90;;;;;;5453880;26;20017;-87
2024/04/24 00:59:28;;;;;;;2.17;0.70;;;6.80;99.90;;;;;;5453384;26;20006;-87
2024/04/24 01:01:53;;;;;;;4.65;1.38;;;6.70;99.90;;;;;;5453608;26;20007;-87
2024/04/24 01:04:19;;;;;;;2.88;0.65;;;6.70;99.90;;;;;;5453764;26;20014;-86
2024/04/24 01:06:44;;;;;;;3.05;0.80;;;6.60;99.90;;;;;;5453246;26;19999;-87
2024/04/24 01:09:10;;;;;;;5.15;1.00;;;6.50;99.90;;;;;;5453825;26;20361;-89
2024/04/24 01:11:36;;;;;;;4.60;0.98;;;6.40;99.90;;;;;;5453249;26;20075;-89
2024/04/24 01:14:02;;;;;;;3.08;0.88;;;6.40;99.90;;;;;;5453496;26;19995;-87
2024/04/24 01:16:31;;;;;;;1.27;0.30;;;6.50;99.90;;;;;;5454139;26;19994;-88
2024/04/24 01:19:19;;;;;;;7.70;1.00;;;6.30;99.90;;;;;;5457318;26;20359;-87
2024/04/24 01:22:05;;;;;;;6.25;1.00;;;6.40;99.90;;;;;;5436687;26;20002;-87
2024/04/24 01:24:36;;;;;;;3.05;1.58;;;6.40;99.90;;;;;;5458624;26;20052;-87
2024/04/24 01:27:02;;;;;;;4.90;0.70;;;6.30;99.90;;;;;;5457520;26;20003;-88
2024/04/24 01:29:28;;;;;;;3.45;1.00;;;6.40;99.90;;;;;;5458326;26;19998;-88
2024/04/24 01:31:53;;;;;;;2.25;1.02;;;6.40;99.90;;;;;;5457240;26;20017;-88
2024/04/24 01:34:19;;;;;;;4.65;0.80;;;6.40;99.90;;;;;;5457093;26;20531;-87
2024/04/24 01:36:44;;;;;;;4.13;0.80;;;6.40;99.90;;;;;;5456935;26;20398;-87
2024/04/24 01:39:10;;;;;;;2.55;0.80;;;6.50;99.90;;;;;;5456934;26;20049;-88
2024/04/24 01:41:35;;;;;;;3.13;0.70;;;6.50;99.90;;;;;;5456927;26;20010;-87
2024/04/24 01:44:01;;;;;;;1.92;0.75;;;6.50;99.90;;;;;;5456818;26;19994;-86
2024/04/24 01:46:27;;;;;;;3.10;0.70;;;6.50;99.90;;;;;;5456132;26;20348;-88
2024/04/24 01:48:53;;;;;;;5.07;1.15;;;6.50;99.90;;;;;;5456310;26;19995;-88
2024/04/24 01:51:19;;;;;;;3.90;1.65;;;6.50;99.90;;;;;;5456837;26;20100;-88
2024/04/24 01:53:45;;;;;;;2.20;0.80;;;6.50;99.90;;;;;;5456491;26;20007;-88
2024/04/24 01:56:11;;;;;;;2.72;1.30;;;6.50;99.90;;;;;;5455807;26;19998;-88
2024/04/24 01:58:37;;;;;;;3.55;0.90;;;6.50;99.90;;;;;;5456451;26;20333;-87
2024/04/24 02:01:02;;;;;;;4.30;1.10;;;6.60;99.90;;;;;;5455228;26;19998;-88
2024/04/24 02:03:28;;;;;;;5.72;0.82;;;6.50;99.90;;;;;;5455764;26;20009;-87
2024/04/24 02:05:54;;;;;;;4.57;0.85;;;6.50;99.90;;;;;;5456492;26;20071;-87
2024/04/24 02:08:19;;;;;;;5.20;1.27;;;6.60;99.90;;;;;;5456274;26;20010;-86
2024/04/24 02:10:45;;;;;;;4.65;1.38;;;6.60;99.90;;;;;;5456440;26;20445;-88
2024/04/24 02:13:10;;;;;;;1.80;0.68;;;6.60;99.90;;;;;;5456389;26;20096;-87
2024/04/24 02:15:36;;;;;;;6.70;1.45;;;6.70;99.90;;;;;;5460477;26;20075;-88
2024/04/24 02:18:05;;;;;;;2.10;0.90;;;6.60;99.90;;;;;;5479933;26;20045;-88
2024/04/24 02:20:35;;;;;;;7.00;0.80;;;6.60;99.90;;;;;;5459701;26;20023;-88
2024/04/24 02:23:04;;;;;;;7.45;1.08;;;6.70;99.90;;;;;;5456125;26;20342;-87
2024/04/24 02:25:33;;;;;;;3.47;1.10;;;6.70;99.90;;;;;;5455993;26;20042;-87
2024/04/24 02:28:09;;;;;;;4.20;1.05;;;6.70;99.90;;;;;;5455820;26;20098;-88
2024/04/24 02:30:34;;;;;;;3.47;1.25;;;6.70;99.90;;;;;;5456406;26;19994;-87
2024/04/24 02:33:01;;;;;;;2.78;0.98;;;6.70;99.90;;;;;;5457265;26;20072;-88
2024/04/24 02:35:27;;;;;;;7.38;1.05;;;6.60;99.90;;;;;;5463631;26;20052;-87
2024/04/24 02:37:53;;;;;;;5.97;1.02;;;6.60;99.90;;;;;;5460281;26;20011;-87
2024/04/24 02:40:18;;;;;;;4.53;1.40;;;6.60;99.90;;;;;;5463964;26;19998;-87
2024/04/24 02:42:47;;;;;;;4.03;1.17;;;6.40;99.90;;;;;;5460653;26;20003;-88
2024/04/24 02:45:12;;;;;;;6.63;1.40;;;6.30;99.90;;;;;;5464845;26;19994;-87
2024/04/24 02:47:38;;;;;;;6.97;1.48;;;6.20;99.90;;;;;;5464570;26;20006;-88
2024/04/24 02:50:04;;;;;;;3.72;1.20;;;6.10;99.90;;;;;;5456187;26;19995;-89
2024/04/24 02:52:29;;;;;;;7.82;1.77;;;6.00;99.90;;;;;;5455750;26;20035;-87
2024/04/24 02:54:55;;;;;;;7.75;1.85;;;6.00;99.90;;;;;;5455763;26;20010;-87
2024/04/24 02:57:20;;;;;;;7.53;1.38;;;6.00;99.90;;;;;;5454932;26;20076;-88
2024/04/24 02:59:46;;;;;;;10.40;2.88;;;6.00;99.90;;;;;;5455984;26;19999;-88
2024/04/24 03:02:11;;;;;;;11.52;2.33;;;6.00;99.90;;;;;;5455750;26;20018;-88
2024/04/24 03:04:37;;;;;;;13.88;2.03;;;6.00;99.90;;;;;;5454880;26;20510;-88
2024/04/24 03:07:02;;;;;;;3.25;1.20;;;6.00;99.90;;;;;;5455940;26;20514;-88
2024/04/24 03:09:28;;;;;;;8.70;1.75;;;6.00;99.90;;;;;;5456005;26;20443;-88
2024/04/24 03:11:53;;;;;;;9.63;1.52;;;6.00;99.90;;;;;;5454937;26;20011;-87
2024/04/24 03:14:20;;;;;;;3.53;1.17;;;6.20;99.90;;;;;;5455750;26;19995;-87
2024/04/24 03:16:45;;;;;;;9.98;2.05;;;6.20;99.90;;;;;;5455625;26;20006;-88
2024/04/24 03:19:11;;;;;;;9.93;2.05;;;6.20;99.90;;;;;;5455379;26;20062;-87
2024/04/24 03:21:36;;;;;;;7.72;1.83;;;6.20;99.90;;;;;;5455711;26;20007;-87
2024/04/24 03:24:02;;;;;;;5.72;1.20;;;6.20;99.90;;;;;;5423824;26;20238;-87
2024/04/24 03:26:28;;;;;;;8.52;2.03;;;6.20;99.90;;;;;;5454322;26;20372;-87
2024/04/24 03:28:53;;;;;;;7.68;1.70;;;6.20;99.90;;;;;;5455278;26;19999;-88
2024/04/24 03:31:19;;;;;;;5.22;1.50;;;6.20;99.90;;;;;;5454914;26;20002;-86
2024/04/24 03:33:44;;;;;;;4.68;1.00;;;6.20;99.90;;;;;;5454811;26;20031;-87
2024/04/24 03:36:10;;;;;;;9.93;1.85;;;6.20;99.90;;;;;;5454989;26;20011;-87
2024/04/24 03:38:35;;;;;;;6.78;1.25;;;6.20;99.90;;;;;;5455055;26;19994;-88
2024/04/24 03:41:01;;;;;;;7.18;1.85;;;6.20;99.90;;;;;;5453087;26;20009;-88
2024/04/24 03:43:26;;;;;;;6.50;1.30;;;6.10;99.90;;;;;;5455193;26;19999;-88
2024/04/24 03:45:52;;;;;;;8.45;1.80;;;6.20;99.90;;;;;;5455087;26;20003;-87
2024/04/24 03:48:18;;;;;;;3.97;1.13;;;6.20;99.90;;;;;;5454509;26;20010;-88
2024/04/24 03:50:43;;;;;;;3.95;1.15;;;6.20;99.90;;;;;;5455274;26;20457;-86
2024/04/24 03:53:09;;;;;;;8.43;1.63;;;6.20;99.90;;;;;;5456483;26;19999;-87
2024/04/24 03:55:34;;;;;;;6.72;1.60;;;6.20;99.90;;;;;;5469884;26;20446;-88
2024/04/24 03:58:00;;;;;;;6.38;1.08;;;6.20;99.90;;;;;;5477546;26;20002;-88
2024/04/24 04:00:25;;;;;;;6.18;1.20;;;6.20;99.90;;;;;;5460152;26;20006;-88
2024/04/24 04:02:51;;;;;;;3.83;0.60;;;6.40;99.90;;;;;;5454870;26;20017;-88
2024/04/24 04:05:16;;;;;;;6.60;0.95;;;6.00;99.90;;;;;;5454571;26;19994;-87
2024/04/24 04:07:42;;;;;;;3.42;0.82;;;6.00;99.90;;;;;;5453899;26;19999;-88
2024/04/24 04:10:07;;;;;;;5.05;1.23;;;5.80;99.90;;;;;;5454918;26;20052;-88
2024/04/24 04:12:33;;;;;;;7.72;0.88;;;5.80;99.90;;;;;;5454916;26;20005;-87
2024/04/24 04:14:58;;;;;;;2.20;0.85;;;5.70;99.90;;;;;;5454090;26;20003;-88
2024/04/24 04:17:24;;;;;;;6.95;0.95;;;5.70;99.90;;;;;;5454551;26;20026;-86
2024/04/24 04:19:49;;;;;;;3.30;0.60;;;5.70;99.90;;;;;;5454514;26;20017;-86
2024/04/24 04:22:15;;;;;;;3.25;0.90;;;5.70;99.90;;;;;;5453562;26;19999;-87
2024/04/24 04:24:41;;;;;;;2.70;0.98;;;5.70;99.90;;;;;;5454734;26;19998;-87
2024/04/24 04:27:07;;;;;;;2.47;0.70;;;5.70;99.90;;;;;;5454399;26;19998;-87
2024/04/24 04:29:32;;;;;;;4.80;1.00;;;5.60;99.90;;;;;;5453732;26;20002;-88
2024/04/24 04:31:58;;;;;;;7.13;0.98;;;5.60;99.90;;;;;;5454111;26;20009;-89
2024/04/24 04:34:24;;;;;;;3.17;0.75;;;5.70;99.90;;;;;;5454404;26;20015;-88
2024/04/24 04:36:49;;;;;;;3.95;1.00;;;5.70;99.90;;;;;;5453843;26;20006;-87
2024/04/24 04:39:15;;;;;;;7.28;1.13;;;5.70;99.90;;;;;;5454510;26;20002;-88
2024/04/24 04:41:40;;;;;;;1.73;0.88;;;5.70;99.90;;;;;;5453792;26;20003;-87
2024/04/24 04:44:06;;;;;;;3.50;0.80;;;5.80;99.90;;;;;;5453509;26;20005;-87
2024/04/24 04:46:31;;;;;;;3.80;1.00;;;5.70;99.90;;;;;;5454239;26;20010;-86
2024/04/24 04:48:57;;;;;;;5.72;1.83;;;5.70;99.90;;;;;;5455004;26;19999;-86
2024/04/24 04:51:22;;;;;;;9.93;1.42;;;5.80;99.90;;;;;;5453041;26;19999;-87
2024/04/24 04:53:48;;;;;;;4.28;1.25;;;5.80;99.90;;;;;;5453727;26;20006;-88
2024/04/24 04:56:14;;;;;;;7.53;1.08;;;5.80;99.90;;;;;;5454733;26;20010;-86
2024/04/24 04:58:39;;;;;;;6.20;0.95;;;5.80;99.90;;;;;;5453530;26;20009;-87
2024/04/24 05:01:05;;;;;;;3.95;1.27;;;5.70;99.90;;;;;;5453871;26;20002;-87
2024/04/24 05:03:30;;;;;;;7.43;1.20;;;5.80;99.90;;;;;;5454348;26;20020;-88
2024/04/24 05:05:56;;;;;;;4.75;0.85;;;5.80;99.90;;;;;;5453750;26;20003;-87
2024/04/24 05:08:22;;;;;;;3.92;1.23;;;5.90;99.90;;;;;;5454521;26;20447;-87
2024/04/24 05:10:47;;;;;;;4.70;0.80;;;5.90;99.90;;;;;;5454416;26;20053;-88
2024/04/24 05:13:13;;;;;;;3.80;1.00;;;5.90;99.90;;;;;;5454941;26;19998;-88
2024/04/24 05:15:39;;;;;;;5.35;0.85;;;6.00;99.90;;;;;;5454891;26;20446;-88
2024/04/24 05:18:05;;;;;;;4.88;0.73;;;6.00;99.90;;;;;;5453075;26;20087;-87
2024/04/24 05:20:30;;;;;;;4.63;1.38;;;5.90;99.90;;;;;;5453727;26;19999;-88
2024/04/24 05:23:00;;;;;;;9.55;1.02;;;5.90;99.90;;;;;;5462236;26;20428;-88
2024/04/24 05:25:28;;;;;;;3.67;0.97;;;5.90;99.90;;;;;;5460687;26;20003;-89
2024/04/24 05:30:38;;;;;;;3.90;1.08;;;6.00;99.90;;;;;;5454699;26;20330;-88
2024/04/24 05:33:04;;;;;;;7.50;1.70;;;6.00;99.90;;;;;;5453151;26;20003;-88
2024/04/24 05:35:29;;;;;;;8.23;1.63;;;6.00;99.90;;;;;;5472865;26;19991;-89
2024/04/24 05:37:55;;;;;;;11.18;1.55;;;5.90;99.90;;;;;;5476628;26;19987;-88
2024/04/24 05:40:20;;;;;;;9.50;1.42;;;6.00;99.90;;;;;;5454591;26;19999;-88
2024/04/24 05:42:46;;;;;;;6.95;1.00;;;6.10;99.90;;;;;;5453536;26;20446;-88
2024/04/24 05:45:13;;;;;;;2.85;1.17;;;6.00;99.90;;;;;;5453860;26;20003;-88
2024/04/24 05:47:39;;;;;;;6.05;1.60;;;6.10;99.90;;;;;;5453414;26;19995;-89
2024/04/24 05:50:05;;;;;;;5.35;1.25;;;6.10;99.90;;;;;;5453800;26;20014;-88
2024/04/24 05:52:31;;;;;;;8.40;1.88;;;6.10;99.90;;;;;;5453775;26;20518;-90
2024/04/24 05:54:56;;;;;;;9.88;1.63;;;6.10;99.90;;;;;;5453267;26;20014;-89
2024/04/24 05:57:25;;;;;;;9.18;1.90;;;6.10;99.90;;;;;;5454033;26;20039;-89
2024/04/24 05:59:51;;;;;;;8.60;1.80;;;6.10;99.90;;;;;;5453726;26;20007;-90
2024/04/24 06:02:16;;;;;;;14.38;2.47;;;7.70;99.90;;;;;;5453950;26;20003;-90
2024/04/24 06:04:42;;;;;;;11.82;2.70;;;6.10;99.90;;;;;;5456288;26;20009;-90
2024/04/24 06:07:08;;;;;;;11.98;1.80;;;6.10;99.90;;;;;;5457310;26;20011;-89
2024/04/24 06:09:33;;;;;;;10.80;1.48;;;6.20;99.90;;;;;;5457444;26;20106;-89
2024/04/24 06:11:59;;;;;;;8.82;1.25;;;6.20;99.90;;;;;;5457271;26;20003;-88
2024/04/24 06:14:25;;;;;;;12.70;1.95;;;6.30;99.90;;;;;;5458240;26;20002;-87
2024/04/24 06:16:51;;;;;;;11.07;2.03;;;6.30;99.90;;;;;;5456293;26;20303;-88
2024/04/24 06:19:16;;;;;;;8.98;1.02;;;6.30;99.90;;;;;;5457350;26;20036;-88
2024/04/24 06:21:42;;;;;;;7.55;1.17;;;6.30;99.90;;;;;;5456495;26;20024;-88
2024/04/24 06:24:08;;;;;;;9.85;2.03;;;6.30;99.90;;;;;;5456435;26;20003;-89
2024/04/24 06:26:35;;;;;;;13.27;1.65;;;6.30;99.90;;;;;;5457061;26;19994;-88
2024/04/24 06:29:00;;;;;;;3.55;1.17;;;6.30;99.90;;;;;;5456881;26;20386;-89
2024/04/24 06:31:26;;;;;;;11.13;2.50;;;6.30;99.90;;;;;;5457561;26;20010;-88
2024/04/24 06:33:51;;;;;;;9.95;1.40;;;6.40;99.90;;;;;;5457631;26;20006;-89
2024/04/24 06:36:17;;;;;;;7.95;1.63;;;6.40;99.90;;;;;;5457302;26;19999;-88
2024/04/24 06:38:42;;;;;;;4.15;1.08;;;6.50;99.90;;;;;;5457496;26;20003;-89
2024/04/24 06:41:08;;;;;;;9.00;1.25;;;6.10;99.90;;;;;;5457493;26;20013;-87
2024/04/24 06:43:34;;;;;;;9.38;1.55;;;6.40;99.90;;;;;;5456080;26;19995;-88
2024/04/24 06:45:59;;;;;;;2.33;0.77;;;6.40;99.90;;;;;;5456111;26;20319;-87
2024/04/24 06:48:25;;;;;;;5.78;1.52;;;6.40;99.90;;;;;;5456428;26;19999;-88
2024/04/24 06:50:50;;;;;;;7.63;1.55;;;6.40;99.90;;;;;;5455750;26;20048;-88
2024/04/24 06:53:16;;;;;;;7.45;1.45;;;6.40;99.90;;;;;;5456157;26;20342;-87
2024/04/24 06:55:44;;;;;;;13.18;3.05;;;6.40;99.90;;;;;;5456054;26;20338;-87
2024/04/24 06:58:10;;;;;;;6.20;1.30;;;6.40;99.90;;;;;;5455889;26;19999;-87
2024/04/24 07:00:35;;;;;;;8.77;1.80;;;6.50;99.90;;;;;;5455922;26;20010;-87
2024/04/24 07:03:03;;;;;;;6.57;1.80;;;6.60;99.90;;;;;;5456587;26;20443;-88
2024/04/24 07:05:28;;;;;;;8.02;1.23;;;6.60;99.90;;;;;;5455778;26;20017;-87
2024/04/24 07:07:54;;;;;;;6.97;1.42;;;6.60;99.90;;;;;;5456484;26;20447;-87
2024/04/24 07:10:19;;;;;;;12.25;1.80;;;6.60;99.90;;;;;;5456292;26;20001;-89
2024/04/24 07:12:45;;;;;;;8.68;1.30;;;6.70;99.90;;;;;;5461242;26;20002;-87
2024/04/24 07:15:11;;;;;;;7.45;1.80;;;6.70;99.90;;;;;;5478933;26;19987;-87
2024/04/24 07:17:36;;;;;;;13.77;1.88;;;7.40;99.90;;;;;;5468045;26;20442;-86
2024/04/24 07:20:02;;;;;;;15.77;2.55;;;6.60;99.90;;;;;;5455559;26;20029;-88
2024/04/24 07:22:27;;;;;;;5.90;1.38;;;6.70;99.90;;;;;;5456030;26;20446;-86
2024/04/24 07:24:53;;;;;;;9.43;1.42;;;6.60;99.90;;;;;;5455538;26;20507;-87
2024/04/24 07:27:18;;;;;;;10.48;3.03;;;6.60;99.90;;;;;;5455588;26;20445;-88
2024/04/24 07:29:44;;;;;;;8.35;1.40;;;6.60;99.90;;;;;;5456478;26;20146;-86
2024/04/24 07:32:09;;;;;;;6.43;1.40;;;6.60;99.90;;;;;;5455458;26;20083;-87
2024/04/24 07:34:35;;;;;;;8.00;1.60;;;6.50;99.90;;;;;;5456036;26;20009;-88
2024/04/24 07:37:01;;;;;;;12.07;1.85;;;6.50;99.90;;;;;;5455888;26;20074;-86
2024/04/24 07:39:26;;;;;;;11.05;1.50;;;6.50;99.90;;;;;;5455314;26;20002;-87
2024/04/24 07:41:52;;;;;;;9.50;1.42;;;6.50;99.90;;;;;;5455653;26;20021;-87
2024/04/24 07:44:17;;;;;;;16.30;2.03;;;6.50;99.90;;;;;;5455351;26;19995;-86
2024/04/24 07:46:43;;;;;;;13.18;1.90;;;6.90;99.90;;;;;;5454940;26;19999;-86
2024/04/24 07:49:08;;;;;;;12.40;2.30;;;6.60;99.90;;;;;;5455450;26;19995;-87
2024/04/24 07:51:34;;;;;;;10.80;2.08;;;6.70;99.90;;;;;;5455309;26;20446;-86
2024/04/24 07:53:59;;;;;;;10.75;1.73;;;6.70;99.90;;;;;;5454890;26;20085;-86
2024/04/24 07:56:25;;;;;;;11.82;2.15;;;6.70;99.90;;;;;;5455167;26;20444;-87
2024/04/24 07:58:51;;;;;;;14.52;3.03;;;6.50;99.90;;;;;;5455665;26;20334;-87
2024/04/24 08:01:19;;;;;;;11.07;2.08;;;6.60;99.90;;;;;;5454807;26;20075;-88
2024/04/24 08:03:45;;;;;;;17.38;2.33;;;6.60;99.90;;;;;;5455860;26;19998;-87
2024/04/24 08:06:10;;;;;;;9.30;1.88;;;6.50;99.90;;;;;;5455105;26;20023;-87
2024/04/24 08:08:37;;;;;;;11.93;2.58;;;6.50;99.90;;;;;;5454721;26;20441;-87
2024/04/24 08:11:03;;;;;;;13.07;2.65;;;6.50;99.90;;;;;;5455277;26;20006;-87
2024/04/24 08:13:29;;;;;;;15.30;2.95;;;5.90;99.90;;;;;;5455191;26;20009;-88
2024/04/24 08:15:54;;;;;;;12.45;1.75;;;7.40;99.90;;;;;;5455026;26;20010;-87
2024/04/24 08:18:20;;;;;;;7.75;2.10;;;6.50;99.90;;;;;;5454762;26;20009;-85
2024/04/24 08:20:46;;;;;;;9.48;1.92;;;6.60;99.90;;;;;;5454459;26;20007;-87
2024/04/24 08:23:11;;;;;;;10.02;1.33;;;6.50;99.90;;;;;;5455018;26;19995;-87
2024/04/24 08:25:37;;;;;;;8.35;1.77;;;6.90;99.90;;;;;;5455039;26;19999;-86
2024/04/24 08:28:03;;;;;;;8.38;1.33;;;6.10;99.90;;;;;;5453459;26;19995;-87
2024/04/24 08:30:28;;;;;;;13.10;2.10;;;6.30;99.90;;;;;;5454025;26;20039;-87
2024/04/24 08:32:54;;;;;;;8.32;1.85;;;6.40;99.90;;;;;;5455178;26;19999;-87
2024/04/24 08:35:19;;;;;;;8.55;1.38;;;6.30;99.90;;;;;;5456291;26;19999;-87
2024/04/24 08:37:45;;;;;;;10.07;1.75;;;6.40;99.90;;;;;;5455054;26;20085;-89
2024/04/24 08:40:11;;;;;;;11.10;1.90;;;6.50;99.90;;;;;;5455123;26;19998;-87
2024/04/24 08:42:37;;;;;;;4.07;1.33;;;6.50;99.90;;;;;;5454423;26;20519;-87
2024/04/24 08:45:03;;;;;;;10.50;2.13;;;6.60;99.90;;;;;;5457419;26;20006;-88
2024/04/24 08:47:29;;;;;;;11.25;1.95;;;6.70;99.90;;;;;;5458491;26;20075;-88
2024/04/24 08:49:55;;;;;;;10.82;1.35;;;6.80;99.90;;;;;;5456554;26;20011;-88
2024/04/24 08:52:24;;;;;;;9.40;1.38;;;6.90;99.90;;;;;;5471104;26;19986;-88
2024/04/24 08:54:55;;;;;;;9.00;1.55;;;7.00;99.90;;;;;;5475093;26;19995;-88
2024/04/24 08:57:23;;;;;;;8.85;1.58;;;7.10;99.90;;;;;;5459694;26;20003;-87
2024/04/24 08:59:51;;;;;;;6.15;1.25;;;6.50;99.90;;;;;;5455501;26;20006;-88
2024/04/24 09:02:19;;;;;;;4.93;1.02;;;7.40;99.90;;;;;;5454396;26;20010;-87
2024/04/24 09:04:45;;;;;;;3.58;1.42;;;7.50;99.90;;;;;;5453749;26;19995;-88
2024/04/24 09:07:12;;;;;;;5.72;1.23;;;7.60;99.90;;;;;;5454539;26;19999;-88
2024/04/24 09:09:38;;;;;;;15.48;1.73;;;7.60;99.90;;;;;;5454255;26;20458;-86
2024/04/24 09:12:06;;;;;;;7.20;1.55;;;7.60;99.90;;;;;;5453667;26;20014;-86
2024/04/24 09:14:32;;;;;;;2.17;0.88;;;7.60;99.90;;;;;;5454017;26;20131;-86
2024/04/24 09:16:58;;;;;;;3.78;1.13;;;7.30;99.90;;;;;;5453243;26;19999;-86
2024/04/24 09:19:24;;;;;;;2.13;0.68;;;7.10;99.90;;;;;;5454047;26;20003;-87
2024/04/24 09:21:49;;;;;;;4.35;0.57;;;6.90;99.90;;;;;;5454236;26;20039;-87
2024/04/24 09:24:16;;;;;;;5.32;1.45;;;6.80;99.90;;;;;;5453744;26;19999;-87
2024/04/24 09:26:42;;;;;;;6.82;1.20;;;6.70;99.90;;;;;;5454003;26;19999;-89
2024/04/24 09:29:11;;;;;;;3.88;1.13;;;6.70;99.90;;;;;;5454299;26;20009;-87
2024/04/24 09:31:41;;;;;;;4.28;1.08;;;6.70;99.90;;;;;;5453437;26;20427;-87
2024/04/24 09:34:07;;;;;;;7.95;1.13;;;6.70;99.90;;;;;;5454122;26;20031;-88
2024/04/24 09:36:37;;;;;;;3.88;0.93;;;6.70;99.90;;;;;;5453854;26;20013;-87
2024/04/24 09:39:06;;;;;;;7.13;1.52;;;6.60;99.90;;;;;;5455832;26;19999;-88
2024/04/24 09:41:31;;;;;;;4.82;0.80;;;6.70;99.90;;;;;;5459845;26;19999;-87
2024/04/24 09:43:57;;;;;;;2.90;0.85;;;6.60;99.90;;;;;;5459280;26;20413;-88
2024/04/24 09:46:23;;;;;;;5.35;1.00;;;6.70;99.90;;;;;;5459293;26;20014;-87
2024/04/24 09:48:51;;;;;;;6.65;1.10;;;6.80;99.90;;;;;;5459944;26;19999;-87
2024/04/24 09:51:18;;;;;;;5.07;1.30;;;6.90;99.90;;;;;;5457922;26;20010;-88
2024/04/24 09:53:43;;;;;;;3.58;1.13;;;6.90;99.90;;;;;;5465293;26;20108;-87
2024/04/24 09:56:27;;;;;;;5.35;1.10;;;7.00;99.90;;;;;;5465073;26;20031;-87
2024/04/24 09:58:54;;;;;;;5.25;1.10;;;7.10;99.90;;;;;;5466374;26;20014;-87
2024/04/24 10:01:23;;;;;;;3.95;1.10;;;6.90;99.90;;;;;;5461759;26;20494;-88
2024/04/24 10:03:51;;;;;;;5.90;1.05;;;7.20;99.90;;;;;;5459353;26;20063;-87
2024/04/24 10:06:20;;;;;;;3.70;0.90;;;7.30;99.90;;;;;;5459332;26;19999;-87
2024/04/24 10:08:48;;;;;;;5.18;0.90;;;7.40;99.90;;;;;;5457074;26;20002;-89
2024/04/24 10:11:16;;;;;;;1.67;0.85;;;7.50;99.90;;;;;;5457128;26;20453;-88
2024/04/24 10:13:45;;;;;;;6.45;1.75;;;7.60;99.90;;;;;;5456672;26;20063;-88
2024/04/24 10:16:11;;;;;;;5.68;1.15;;;7.60;99.90;;;;;;5456828;26;20473;-87
2024/04/24 10:18:37;;;;;;;5.47;1.17;;;7.40;99.90;;;;;;5456638;26;20015;-89
2024/04/24 10:21:04;;;;;;;5.47;1.45;;;7.70;99.90;;;;;;5456215;26;20009;-88
2024/04/24 10:23:30;;;;;;;5.82;1.27;;;7.80;99.90;;;;;;5456893;26;19999;-87
2024/04/24 10:25:56;;;;;;;8.25;1.33;;;7.80;99.90;;;;;;5456888;26;19995;-88
2024/04/24 10:28:24;;;;;;;6.15;1.15;;;7.90;99.90;;;;;;5456484;26;20003;-87
2024/04/24 10:30:50;;;;;;;11.80;2.42;;;8.00;99.90;;;;;;5473060;26;19990;-88
2024/04/24 10:33:16;;;;;;;5.00;1.17;;;8.10;99.90;;;;;;5479444;26;20010;-86
2024/04/24 10:35:42;;;;;;;4.93;1.05;;;8.20;99.90;;;;;;5459447;26;20006;-88
2024/04/24 10:38:08;;;;;;;6.80;1.40;;;8.20;99.90;;;;;;5457845;26;20014;-88
2024/04/24 10:40:35;;;;;;;2.97;0.85;;;8.30;99.90;;;;;;5458542;26;20001;-88
2024/04/24 10:43:04;;;;;;;2.97;0.82;;;8.40;99.90;;;;;;5456581;26;20006;-87
2024/04/24 10:45:33;;;;;;;8.73;1.25;;;8.50;99.90;;;;;;5456602;26;20003;-88
2024/04/24 10:47:59;;;;;;;7.32;1.45;;;8.70;99.90;;;;;;5456568;26;20003;-88
2024/04/24 10:50:28;;;;;;;10.55;1.35;;;8.80;99.90;;;;;;5455117;26;19995;-88
2024/04/24 10:52:56;;;;;;;9.20;1.60;;;8.60;99.90;;;;;;5456338;26;20013;-89
2024/04/24 10:55:22;;;;;;;10.80;2.13;;;8.40;99.90;;;;;;5455948;26;20462;-87
2024/04/24 10:57:54;;;;;;;9.82;1.92;;;8.10;99.90;;;;;;5456161;26;20002;-88
2024/04/24 11:00:22;;;;;;;11.73;1.58;;;7.90;99.90;;;;;;5456196;26;20338;-88
2024/04/24 11:02:52;;;;;;;6.32;1.27;;;7.70;99.90;;;;;;5456187;26;20053;-88
2024/04/24 11:05:19;;;;;;;2.22;0.93;;;7.70;99.90;;;;;;5457177;26;20007;-87
2024/04/24 11:07:57;;;;;;;3.25;0.88;;;7.80;99.90;;;;;;5455719;26;20502;-88
2024/04/24 11:10:23;;;;;;;6.25;1.10;;;7.80;99.90;;;;;;5455481;26;19999;-88
2024/04/24 11:12:49;;;;;;;3.75;1.15;;;7.90;99.90;;;;;;5455828;26;20346;-88
2024/04/24 11:15:23;;;;;;;8.70;1.48;;;8.10;99.90;;;;;;5456113;26;19999;-88
2024/04/24 11:17:50;;;;;;;7.25;1.90;;;8.20;99.90;;;;;;5455108;26;20043;-89
2024/04/24 11:20:16;;;;;;;5.43;1.50;;;8.30;99.90;;;;;;5455902;26;20079;-88
2024/04/24 11:22:42;;;;;;;9.35;1.90;;;8.40;99.90;;;;;;5455977;26;20028;-88
2024/04/24 11:25:11;;;;;;;18.35;2.42;;;8.50;99.90;;;;;;5455299;26;20002;-88
2024/04/24 11:27:37;;;;;;;15.15;2.45;;;8.60;99.90;;;;;;5455772;26;20026;-88
2024/04/24 11:30:17;;;;;;;12.75;2.40;;;8.70;99.90;;;;;;5455815;26;19998;-88
2024/04/24 11:32:48;;;;;;;8.38;2.28;;;8.80;99.90;;;;;;5455413;26;20006;-87
2024/04/24 11:35:15;;;;;;;9.35;1.90;;;8.90;99.90;;;;;;5455479;26;20006;-88
2024/04/24 11:37:42;;;;;;;11.77;2.10;;;8.90;99.90;;;;;;5454836;26;20011;-89
2024/04/24 11:40:12;;;;;;;8.00;1.67;;;8.70;99.90;;;;;;5455606;26;20010;-88
2024/04/24 11:42:45;;;;;;;8.25;1.73;;;8.50;99.90;;;;;;5456737;26;19995;-87
2024/04/24 11:45:12;;;;;;;12.68;2.60;;;8.40;99.90;;;;;;5455090;26;20010;-88
2024/04/24 11:47:37;;;;;;;9.38;1.85;;;8.40;99.90;;;;;;5455150;26;20018;-87
2024/04/24 11:50:03;;;;;;;9.90;2.05;;;8.40;99.90;;;;;;5455372;26;19995;-88
2024/04/24 11:52:40;;;;;;;15.20;2.38;;;8.50;99.90;;;;;;5454669;26;20083;-88
2024/04/24 11:55:07;;;;;;;15.25;1.80;;;8.40;99.90;;;;;;5455670;26;19999;-88
2024/04/24 11:57:37;;;;;;;7.07;1.58;;;8.50;99.90;;;;;;5455584;26;20010;-88
2024/04/24 12:00:04;;;;;;;13.02;2.10;;;8.60;99.90;;;;;;5454792;26;20462;-88
2024/04/24 12:02:35;;;;;;;12.35;2.25;;;8.70;99.90;;;;;;5453122;26;19999;-87
2024/04/24 12:05:06;;;;;;;12.70;2.25;;;8.90;99.90;;;;;;5454890;26;20013;-88
2024/04/24 12:07:32;;;;;;;15.68;2.58;;;9.00;99.90;;;;;;5455074;26;19999;-88
2024/04/24 12:09:58;;;;;;;17.98;2.50;;;9.10;99.90;;;;;;5455548;26;20450;-88
2024/04/24 12:12:24;;;;;;;15.18;2.80;;;9.90;99.90;;;;;;5455083;26;20396;-87
2024/04/24 12:14:56;;;;;;;10.73;1.88;;;9.40;99.90;;;;;;5456192;26;20009;-88
2024/04/24 12:17:22;;;;;;;10.20;1.67;;;9.40;99.90;;;;;;5456130;26;20002;-88
2024/04/24 12:19:47;;;;;;;13.73;2.40;;;9.40;99.90;;;;;;5454764;26;20518;-89
2024/04/24 12:22:13;;;;;;;13.77;1.77;;;9.40;99.90;;;;;;5456043;26;20002;-89
2024/04/24 12:24:39;;;;;;;11.00;2.10;;;9.70;99.90;;;;;;5456468;26;20076;-88
2024/04/24 12:27:05;;;;;;;9.55;2.00;;;9.60;99.90;;;;;;5454876;26;20455;-89
2024/04/24 12:29:30;;;;;;;11.80;1.85;;;9.70;99.90;;;;;;5455007;26;19999;-88
2024/04/24 12:31:57;;;;;;;7.65;2.70;;;9.70;99.90;;;;;;5454878;26;20002;-89
2024/04/24 12:34:24;;;;;;;12.85;1.60;;;9.80;99.90;;;;;;5454269;26;19999;-89
2024/04/24 12:36:54;;;;;;;16.92;2.67;;;9.90;99.90;;;;;;5455424;26;20017;-89
2024/04/24 12:39:20;;;;;;;15.77;2.42;;;9.80;99.90;;;;;;5455064;26;20003;-89
2024/04/24 12:41:45;;;;;;;7.97;2.00;;;9.90;99.90;;;;;;5454719;26;20017;-89
2024/04/24 12:44:11;;;;;;;7.75;1.92;;;9.80;99.90;;;;;;5456206;26;20327;-91
2024/04/24 12:46:37;;;;;;;15.45;2.20;;;9.70;99.90;;;;;;5466352;26;20048;-85
2024/04/24 12:49:03;;;;;;;13.20;2.53;;;9.60;99.90;;;;;;5476574;26;19995;-87
2024/04/24 12:51:30;;;;;;;13.52;2.58;;;9.50;99.90;;;;;;5475226;26;20057;-87
2024/04/24 12:53:56;;;;;;;8.88;2.05;;;9.60;99.90;;;;;;5463146;26;20337;-88